Rhode Island Logo

Providence, RI Single Family Real Estate Listings

187 Total Real Estate Listings * Click on table heading to sort
Date Posted Property Type Style Address Price Living Area Lot Size Price/Sq Ft.
2017-03-30 Single Family Colonial 145 Nelson St Providence, RI 02908 $274,900 1,499 sq. ft. 3,920 sq. ft. $183
2017-03-30 Single Family Victorian 137 Wallace St Providence, RI 02909 $199,900 2,346 sq. ft. 3,920 sq. ft. $85
2017-03-29 Single Family Colonial 28 Hamilton St Providence, RI 02907 $109,900 1,056 sq. ft. 1,742 sq. ft. $104
2017-03-29 Single Family Cape Cod; Colonial 40 Dewey St Providence, RI 02909 $164,900 1,152 sq. ft. 4,792 sq. ft. $143
2017-03-29 Single Family Bungalow 66 Laurel Hill Av Ne Providence, RI 02909 $149,900 1,349 sq. ft. 3,049 sq. ft. $111
2017-03-28 Single Family Colonial 986 Atwells Av Providence, RI 02909 $110,000 2,505 sq. ft. 3,049 sq. ft. $44
2017-03-28 Single Family Colonial 23 Annie St Providence, RI 02908 $279,900 1,560 sq. ft. 3,920 sq. ft. $179
2017-03-28 Single Family Cottage 59 Hammond St Providence, RI 02909 $179,000 1,415 sq. ft. 5,663 sq. ft. $126
2017-03-27 Single Family Bungalow 145 Veazie St Providence, RI 02908 $95,000 691 sq. ft. 3,049 sq. ft. $137
2017-03-27 Single Family Bungalow 126 Washington Av Providence, RI 02905 $119,900 840 sq. ft. 3,485 sq. ft. $143
2017-03-27 Single Family 19 Warren St Providence, RI 02907 $139,000 440 sq. ft. 4,356 sq. ft. $316
2017-03-27 Single Family Ranch 510 River Av Providence, RI 02908 $219,900 1,496 sq. ft. 9,583 sq. ft. $147
2017-03-27 Single Family Cape Cod 87 Winthrop Av Providence, RI 02908 $160,000 1,142 sq. ft. 3,049 sq. ft. $140
2017-03-25 Single Family Cottage 16 Depew St Providence, RI 02907 $229,900 1,288 sq. ft. 14,810 sq. ft. $178
2017-03-24 Single Family Ranch 68 Wealth Av Providence, RI 02908 $95,220 1,060 sq. ft. 3,485 sq. ft. $90
2017-03-23 Single Family Colonial 299 River Av Providence, RI 02908 $247,500 1,484 sq. ft. 4,792 sq. ft. $167
2017-03-23 Single Family Bungalow 16 Canonchet St Providence, RI 02908 $180,000 1,296 sq. ft. 4,792 sq. ft. $139
2017-03-22 Single Family Ranch 11 Noyes Av Providence, RI 02907 $114,900 1,100 sq. ft. 3,049 sq. ft. $104
2017-03-21 Single Family Colonial 37 Homer St Providence, RI 02905 $90,000 3,049 sq. ft.
2017-03-20 Single Family Ranch 75 Christopher St Providence, RI 02904 $249,000 1,432 sq. ft. 6,970 sq. ft. $174
2017-03-20 Single Family Ranch 59 Italy St Providence, RI 02908 $155,000 1,222 sq. ft. 5,227 sq. ft. $127
2017-03-20 Single Family Cape Cod 14 Beetle St Providence, RI 02909 $160,000 1,156 sq. ft. 3,485 sq. ft. $138
2017-03-18 Single Family Cape Cod 140 Babcock St Providence, RI 02905 $150,000 1,300 sq. ft. 3,049 sq. ft. $115
2017-03-17 Single Family Raised Ranch 41 Jasper St Providence, RI 02904 $184,500 836 sq. ft. 6,098 sq. ft. $221
2017-03-17 Single Family Colonial 134 Houston St Providence, RI 02905 $149,900 1,648 sq. ft. 3,049 sq. ft. $91
2017-03-17 Single Family Cape Cod 34 Ledge St Providence, RI 02904 $155,900 1,056 sq. ft. 5,227 sq. ft. $148
2017-03-17 Single Family Colonial 260 Admiral St Providence, RI 02908 $148,000 1,372 sq. ft. 3,049 sq. ft. $108
2017-03-16 Single Family Colonial 59 Fillmore St Providence, RI 02908 $159,900 846 sq. ft. 1,307 sq. ft. $189
2017-03-16 Single Family Colonial 114 Harold St Providence, RI 02908 $189,000 1,822 sq. ft. 3,920 sq. ft. $104
2017-03-16 Single Family Bungalow 73 Gray St Providence, RI 02909 $169,900 2,340 sq. ft. 3,920 sq. ft. $73
2017-03-16 Single Family Historic; Victorian 88 Ring St Providence, RI 02909 $249,000 2,115 sq. ft. 3,920 sq. ft. $118
2017-03-16 Single Family Colonial; Historic 400 Angell St Providence, RI 02906 $900,000 4,250 sq. ft. 6,970 sq. ft. $212
2017-03-15 Single Family Ranch 99 Northup St Providence, RI 02904 $109,900 960 sq. ft. 3,485 sq. ft. $114
2017-03-15 Single Family Contemporary 92 Seamans St Providence, RI 02908 $199,000 1,082 sq. ft. 8,276 sq. ft. $184
2017-03-15 Single Family Colonial 34 Belmont Av Providence, RI 02908 $185,000 1,698 sq. ft. 4,356 sq. ft. $109
2017-03-15 Single Family 106 Wilson St Providence, RI 02907 $155,000 1,344 sq. ft. 3,920 sq. ft. $115
2017-03-15 Single Family Colonial 94 Burnside St Providence, RI 02905 $159,900 1,518 sq. ft. 3,920 sq. ft. $105
2017-03-14 Single Family Colonial 16 Elmcroft Av Providence, RI 02909 $259,000 1,807 sq. ft. 4,356 sq. ft. $143
2017-03-14 Single Family Colonial 328 Mount Pleasant Av Providence, RI 02908 $254,900 2,016 sq. ft. 4,792 sq. ft. $126
2017-03-12 Single Family Raised Ranch 11 Ophelia St Providence, RI 02909 $239,900 1,848 sq. ft. 6,534 sq. ft. $130
2017-03-12 Single Family Colonial 109 - 105 Salina St Providence, RI 02908 $115,000 1,200 sq. ft. 3,920 sq. ft. $96
2017-03-10 Single Family Bungalow; Cottage 10 Duke St Providence, RI 02908 $79,900 832 sq. ft. 2,178 sq. ft. $96
2017-03-09 Single Family Cape Cod 239 Gray St Providence, RI 02909 $179,000 1,040 sq. ft. 3,049 sq. ft. $172
2017-03-09 Single Family Ranch Providence, RI $143,000 1,176 sq. ft. 6,534 sq. ft. $122
2017-03-08 Single Family Cape Cod 745 Academy Av Providence, RI 02908 $199,900 1,166 sq. ft. 3,920 sq. ft. $171
2017-03-08 Single Family Colonial 142 Stanwood St Providence, RI 02907 $65,000 665 sq. ft. 3,049 sq. ft. $98
2017-03-08 Single Family Colonial 50 Malvern St Providence, RI 02908 $99,900 1,180 sq. ft. 3,920 sq. ft. $85
2017-03-08 Single Family Colonial 47 Ortoleva Dr Providence, RI 02909 $119,900 998 sq. ft. 3,049 sq. ft. $120
2017-03-07 Single Family Colonial 122 Laban St Providence, RI 02909 $249,900 1,768 sq. ft. 10,019 sq. ft. $141
2017-03-07 Single Family Bungalow 111 Roosevelt St Providence, RI 02909 $189,900 1,651 sq. ft. 4,792 sq. ft. $115
2017-03-06 Single Family Colonial 80 Lenox Av Providence, RI 02907 $205,000 2,188 sq. ft. 4,792 sq. ft. $94
2017-03-06 Single Family Ranch 30 Gloucester St Providence, RI 02908 $149,900 1,068 sq. ft. 3,920 sq. ft. $140
2017-03-06 Single Family Ranch 368 Hawkins St Providence, RI 02904 $129,900 1,232 sq. ft. 6,098 sq. ft. $105
2017-03-06 Single Family Colonial 73 Corinth St Providence, RI 02907 $174,900 1,592 sq. ft. 4,792 sq. ft. $110
2017-03-04 Single Family Colonial 16 Vale St Providence, RI 02908 $145,000 960 sq. ft. 6,098 sq. ft. $151
2017-03-04 Single Family Cottage 11 Swanton St Providence, RI 02910 $164,000 862 sq. ft. 871 sq. ft. $190
2017-03-02 Single Family Colonial 16 Chatham St Providence, RI 02904 $169,999 1,223 sq. ft. 3,920 sq. ft. $139
2017-03-02 Single Family Cape Cod 475 Sharon St Providence, RI 02908 $249,900 2,181 sq. ft. 7,841 sq. ft. $115
2017-03-02 Single Family Split Level; Tri-Level 385 Eaton St Providence, RI 02908 $234,700 1,224 sq. ft. 5,227 sq. ft. $192
2017-03-01 Single Family Colonial 37 Benedict St Providence, RI 02907 $55,000 1,426 sq. ft. 3,485 sq. ft. $39
2017-03-01 Single Family Ranch 44 Burns St Providence, RI 02904 $149,900 1,301 sq. ft. 8,712 sq. ft. $115
2017-03-01 Single Family Bungalow 393 Montgomery Av Providence, RI 02905 $249,900 2,075 sq. ft. 0 sq. ft. $120
2017-03-01 Single Family 510 Douglas Av Providence, RI 02908 $64,900 1,012 sq. ft. 3,485 sq. ft. $64
2017-03-01 Single Family Colonial 91 Modena Av Providence, RI 02908 $329,000 2,171 sq. ft. 5,227 sq. ft. $152
2017-03-01 Single Family Ranch 47 Samoset Av Providence, RI 02908 $139,900 1,056 sq. ft. 3,049 sq. ft. $132
2017-02-28 Single Family Colonial 94 Radcliffe Av Providence, RI 02908 $219,000 1,813 sq. ft. 3,485 sq. ft. $121
2017-02-27 Single Family Bungalow 145 Modena Av Providence, RI 02908 $268,800 1,409 sq. ft. 4,356 sq. ft. $191
2017-02-27 Single Family Cape Cod 4 Forsyth St Providence, RI 02908 $119,300 1,291 sq. ft. 3,049 sq. ft. $92
2017-02-27 Single Family Cape Cod 6 Forsyth St Providence, RI 02908 $119,300 1,089 sq. ft. 3,049 sq. ft. $110
2017-02-27 Single Family Ranch 1260 Smith St Providence, RI 02908 $139,000 952 sq. ft. 4,792 sq. ft. $146
2017-02-26 Single Family Ranch 29 Shepard Av Providence, RI 02904 $179,900 1,080 sq. ft. 4,356 sq. ft. $167
2017-02-24 Single Family 56 Corinth St Providence, RI 02907 $144,500 1,812 sq. ft. 4,792 sq. ft. $80
2017-02-24 Single Family Cape Cod 78 Brightwood Av Providence, RI 02908 $239,900 1,331 sq. ft. 4,792 sq. ft. $180
2017-02-24 Single Family Cape Cod 208 Killingly St Providence, RI 02909 $179,000 1,220 sq. ft. 4,356 sq. ft. $147
2017-02-23 Single Family Colonial 41 Tyndall Av Providence, RI 02908 $279,900 2,234 sq. ft. 4,356 sq. ft. $125
2017-02-23 Single Family Ranch 6 Sunrise Dr Providence, RI 02908 $204,500 1,184 sq. ft. 6,534 sq. ft. $173
2017-02-23 Single Family Bungalow 421 Sharon St Providence, RI 02908 $210,000 1,202 sq. ft. 3,920 sq. ft. $175
2017-02-22 Single Family Colonial 10 Leo Av Providence, RI 02904 $225,000 1,544 sq. ft. 4,792 sq. ft. $146
2017-02-22 Single Family 89 Cumerford St Providence, RI 02909 $72,000 1,456 sq. ft. 3,920 sq. ft. $49
2017-02-21 Single Family Ranch 75 Freese St Providence, RI 02908 $194,900 1,181 sq. ft. 3,920 sq. ft. $165
2017-02-21 Single Family Colonial 79 Roslyn Av Providence, RI 02908 $325,000 2,270 sq. ft. 4,356 sq. ft. $143
2017-02-21 Single Family Cape Cod 141 Silver Lake Av Providence, RI 02909 $175,000 1,288 sq. ft. 7,841 sq. ft. $136
2017-02-21 Single Family Raised Ranch 8 - 10 Famiglietti Dr Providence, RI 02904 $203,900 1,132 sq. ft. 6,534 sq. ft. $180
2017-02-21 Single Family Cape Cod 62 Carteret St Providence, RI 02908 $229,900 1,282 sq. ft. 3,920 sq. ft. $179
2017-02-21 Single Family Raised Ranch 51 Alicant St Providence, RI 02908 $259,000 1,470 sq. ft. 10,890 sq. ft. $176
2017-02-21 Single Family Bungalow; Cape Cod 137 Longwood Av Providence, RI 02908 $259,900 1,250 sq. ft. 3,920 sq. ft. $208
2017-02-21 Single Family Ranch 127 Johnson St Providence, RI 02905 $184,900 1,008 sq. ft. 3,920 sq. ft. $183
2017-02-21 Single Family Ranch 425 Park Av Providence, RI 02910 $103,000 941 sq. ft. 3,920 sq. ft. $109
2017-02-21 Single Family Ranch 51-55 Seabury St Providence, RI 02907 $110,000 8,000 sq. ft. 7,841 sq. ft. $14
2017-02-21 Single Family Ranch 50 Ophelia St Providence, RI 02909 $119,900 960 sq. ft. 4,792 sq. ft. $125
2017-02-21 Single Family Victorian 142 Houston St Providence, RI 02905 $124,800 1,021 sq. ft. 3,049 sq. ft. $122
2017-02-21 Single Family Cape Cod 83 Freedom Rd Providence, RI 02909 $124,900 1,609 sq. ft. 6,534 sq. ft. $78
2017-02-21 Single Family Town House 120 Emerson St Providence, RI 02907 $125,000 2,052 sq. ft. 2,614 sq. ft. $61
2017-02-21 Single Family Bungalow 168 Rutherglen Av Providence, RI 02907 $129,000 745 sq. ft. 4,792 sq. ft. $173
2017-02-21 Single Family Colonial 9 Pinehurst Av Providence, RI 02908 $149,000 1,617 sq. ft. 3,920 sq. ft. $92
2017-02-21 Single Family Bungalow 1660 - 1662 Chalkstone Av Providence, RI 02909 $149,000 2,109 sq. ft. 8,712 sq. ft. $71
2017-02-21 Single Family Ranch 45 Messina St Providence, RI 02908 $149,900 1,144 sq. ft. 3,485 sq. ft. $131
2017-02-21 Single Family Cape Cod 26 Sherwood St Providence, RI 02908 $149,900 1,075 sq. ft. 2,178 sq. ft. $139
2017-02-21 Single Family Ranch 826 Plainfield St Providence, RI 02909 $149,900 1,072 sq. ft. 4,792 sq. ft. $140
2017-02-21 Single Family Colonial 247 Lowell Av Providence, RI 02909 $149,900 1,440 sq. ft. 5,227 sq. ft. $104
2017-02-21 Single Family Raised Ranch 727 Charles St Providence, RI 02904 $149,900 1,784 sq. ft. 2,614 sq. ft. $84
2017-02-21 Single Family Colonial 113 Jastram St Providence, RI 02908 $160,000 1,839 sq. ft. 4,792 sq. ft. $87
2017-02-21 Single Family Ranch 215 Jastram St Providence, RI 02908 $162,500 980 sq. ft. 3,920 sq. ft. $166
2017-02-21 Single Family Colonial 25 Autumn St Providence, RI 02905 $54,900 1,550 sq. ft. 3,485 sq. ft. $35
2017-01-27 Single Family Colonial 37 Joy St Providence, RI 02908 $279,000 1,230 sq. ft. 3,920 sq. ft. $227
2017-01-27 Single Family Ranch 372 Jastram St Providence, RI 02908 $169,000 986 sq. ft. 4,792 sq. ft. $171
2017-01-27 Single Family Raised Ranch 36 Sterling Av Providence, RI 02909 $152,900 1,032 sq. ft. 3,049 sq. ft. $148
2017-01-27 Single Family Colonial 45 Grosvenor Av Providence, RI 02908 $215,000 1,674 sq. ft. 5,663 sq. ft. $128
2017-01-26 Single Family Cape Cod 12 Westmore St Providence, RI 02910 $159,900 1,075 sq. ft. 10,019 sq. ft. $149
2017-01-24 Single Family Colonial 9 Applegate Lane Providence, RI 02905 $154,900 1,082 sq. ft. 2,614 sq. ft. $143
2017-01-24 Single Family Bungalow 175 Montgomery Av Providence, RI 02905 $169,000 1,123 sq. ft. 4,356 sq. ft. $150
2017-01-23 Single Family Ranch 149 Waldo St Providence, RI 02907 $134,900 1,024 sq. ft. 3,920 sq. ft. $132
2017-01-20 Single Family Ranch 162 Early St Providence, RI 02907 $135,000 1,104 sq. ft. 3,049 sq. ft. $122
2017-01-20 Single Family Colonial 1327 Eddy St Providence, RI 02905 $129,900 1,877 sq. ft. 6,970 sq. ft. $69
2017-01-19 Single Family Ranch 42 General St Providence, RI 02904 $145,000 1,220 sq. ft. 6,098 sq. ft. $119
2017-01-18 Single Family Bungalow 80 Bradley St Providence, RI 02908 $219,900 1,394 sq. ft. 6,098 sq. ft. $158
2017-01-18 Single Family Colonial 236 Lowell Av Providence, RI 02909 $179,900 1,536 sq. ft. 4,792 sq. ft. $117
2017-01-18 Single Family Cape Cod 843 Douglas Av Providence, RI 02908 $129,900 1,036 sq. ft. 6,534 sq. ft. $125
2017-01-16 Single Family Cape Cod 76 Metropolitan Rd Providence, RI 02908 $149,900 1,283 sq. ft. 3,049 sq. ft. $117
2017-01-15 Single Family Bungalow; Ranch 337 Jastram St Providence, RI 02908 $194,900 929 sq. ft. 7,405 sq. ft. $210
2017-01-13 Single Family Bungalow 41 Murray St Providence, RI 02909 $145,000 1,008 sq. ft. 6,970 sq. ft. $144
2017-01-12 Single Family 147 Delaine St Providence, RI 02909 $99,900 1,040 sq. ft. 6,534 sq. ft. $96
2017-01-11 Single Family 274 Amherst St Providence, RI 02909 $35,500 806 sq. ft. 1,742 sq. ft. $44
2017-01-08 Single Family 48 Gilmore St Providence, RI 02907 $119,900 1,100 sq. ft. 2,178 sq. ft. $109
2017-01-06 Single Family Ranch 99 Eastwood Av Providence, RI 02909 $111,900 1,080 sq. ft. 7,405 sq. ft. $104
2017-01-06 Single Family Raised Ranch 21 Case Lane Providence, RI 02908 $210,000 1,126 sq. ft. 4,356 sq. ft. $186
2017-01-05 Single Family Colonial 52 Tappan St Providence, RI 02908 $125,000 900 sq. ft. 3,049 sq. ft. $139
2017-01-04 Single Family Colonial 9 Rodman St Providence, RI 02907 $94,900 1,104 sq. ft. 4,792 sq. ft. $86
2017-01-03 Single Family Colonial 79 Lowell Av Providence, RI 02909 $149,000 1,270 sq. ft. 3,920 sq. ft. $117
2017-01-02 Single Family Single Family-Attached 274 Admiral St Providence, RI 02908 $119,900 1,183 sq. ft. 6,534 sq. ft. $101
2017-01-02 Single Family 90 Toronto Av Providence, RI 02905 $169,900 1,150 sq. ft. 3,485 sq. ft. $148
2017-01-02 Single Family Bungalow; Colonial 171 Grove St Providence, RI 02909 $159,875 1,172 sq. ft. 2,178 sq. ft. $136
2017-01-02 Single Family Colonial 15 Hooker St Providence, RI 02908 $169,900 1,161 sq. ft. 3,049 sq. ft. $146
2016-12-29 Single Family Ranch 32 Melissa St Providence, RI 02909 $74,900 832 sq. ft. 4,792 sq. ft. $90
2016-12-28 Single Family Colonial 45 Horace St Providence, RI 02909 $239,000 1,456 sq. ft. 6,098 sq. ft. $164
2016-12-26 Single Family Colonial 137 Daniel Av Providence, RI 02909 $109,000 907 sq. ft. 3,049 sq. ft. $120
2016-12-21 Single Family Ranch 26 Verdic Av Providence, RI 02909 $174,900 1,092 sq. ft. 6,534 sq. ft. $160
2016-12-17 Single Family Colonial 17 Priscilla Av Providence, RI 02909 $179,900 1,536 sq. ft. 3,485 sq. ft. $117
2016-12-07 Single Family Bungalow 171 Massachusetts Av Providence, RI 02905 $169,000 1,641 sq. ft. 3,049 sq. ft. $103
2016-12-07 Single Family Cape Cod 80 What Cheer Av Providence, RI 02909 $149,900 1,258 sq. ft. 6,098 sq. ft. $119
2016-12-06 Single Family Bungalow 88 Pomona Av Providence, RI 02908 $209,000 1,598 sq. ft. 6,534 sq. ft. $131
2016-12-06 Single Family Bungalow 27 Delmar St Providence, RI 02907 $179,711 1,076 sq. ft. 4,792 sq. ft. $167
2016-12-05 Single Family Colonial 1712 Chalkstone Av Providence, RI 02909 $155,000 1,275 sq. ft. 3,485 sq. ft. $122
2016-12-01 Single Family Ranch 186 Oxford St Providence, RI 02905 $118,900 960 sq. ft. 3,920 sq. ft. $124
2016-12-01 Single Family Colonial 110 Baxter St Providence, RI 02905 $112,900 1,408 sq. ft. 2,178 sq. ft. $80
2016-11-29 Single Family Bungalow 207 New York Av Providence, RI 02905 $155,000 1,041 sq. ft. 3,485 sq. ft. $149
2016-11-29 Single Family Cottage 52 Borinquen St Providence, RI 02905 $129,900 1,266 sq. ft. 7,405 sq. ft. $103
2016-11-29 Single Family Bungalow 426 Sharon St Providence, RI 02908 $229,000 1,152 sq. ft. 5,227 sq. ft. $199
2016-11-23 Single Family 121 Springfield St Providence, RI 02909 $149,400 960 sq. ft. 3,049 sq. ft. $156
2016-11-23 Single Family 158 Early St Providence, RI 02907 $123,900 2,289 sq. ft. 3,049 sq. ft. $54
2016-11-23 Single Family Colonial 182 Indiana Av Providence, RI 02905 $149,900 1,334 sq. ft. 3,049 sq. ft. $112
2016-11-22 Single Family Colonial 75 Ravenswood Av Providence, RI 02908 $252,500 1,729 sq. ft. 4,792 sq. ft. $146
2016-11-22 Single Family Colonial 15 Rowan St Providence, RI 02908 $187,500 1,704 sq. ft. 3,049 sq. ft. $110
2016-11-18 Single Family Contemporary 19 Knowles St Providence, RI 02906 $174,500 1,412 sq. ft. 6,970 sq. ft. $124
2016-11-18 Single Family Victorian 228 Washington Av Providence, RI 02905 $164,900 1,775 sq. ft. 4,792 sq. ft. $93
2016-11-16 Single Family Cape Cod 627 Manton Av Providence, RI 02909 $149,900 1,578 sq. ft. 6,534 sq. ft. $95
2016-11-11 Single Family Ranch 94 Parnell St Providence, RI 02909 $105,996 960 sq. ft. 3,485 sq. ft. $110
2016-11-07 Single Family Ranch 147 Isabella Av Providence, RI 02908 $159,900 1,332 sq. ft. 5,227 sq. ft. $120
2016-11-04 Single Family Colonial 179 Colfax St Providence, RI 02905 $179,900 1,212 sq. ft. 3,049 sq. ft. $148
2016-11-03 Single Family Ranch 40 Glossop St Providence, RI 02911 $119,900 843 sq. ft. 3,485 sq. ft. $142
2016-10-30 Single Family Bungalow 10 Glasgow St Providence, RI 02908 $149,000 1,308 sq. ft. 3,920 sq. ft. $114
2016-10-29 Single Family Colonial 97 Fisk St Providence, RI 02905 $169,900 1,114 sq. ft. 2,614 sq. ft. $153
2016-10-28 Single Family Ranch 433 Potters Av Providence, RI 02907 $194,900 1,512 sq. ft. 3,049 sq. ft. $129
2016-10-20 Single Family Colonial 87 Elmdale Av Providence, RI 02909 $124,900 1,280 sq. ft. 3,920 sq. ft. $98
2016-10-20 Single Family Ranch 80 Netop Dr Providence, RI 02907 $135,000 936 sq. ft. 5,227 sq. ft. $144
2016-10-19 Single Family Ranch 12 Wardlaw Ct Providence, RI 02908 $170,000 1,324 sq. ft. 6,970 sq. ft. $128
2016-10-18 Single Family Colonial 493 Pleasant Valley Pkwy Providence, RI 02908 $280,000 1,738 sq. ft. 5,663 sq. ft. $161
2016-10-17 Single Family Bungalow 28 Carr St Providence, RI 02905 $145,900 1,456 sq. ft. 3,049 sq. ft. $100
2016-10-15 Single Family 173 Langdon St Providence, RI 02904 $60,000 1,030 sq. ft. 4,792 sq. ft. $58
2016-10-14 Single Family Colonial 31 Alverson Av Providence, RI 02909 $235,000 2,860 sq. ft. 3,920 sq. ft. $82
2016-10-14 Single Family Bungalow 214 Admiral St Providence, RI 02908 $79,500 532 sq. ft. 3,920 sq. ft. $149
2016-10-13 Single Family Colonial 68 Anthony Av Providence, RI 02909 $119,000 2,100 sq. ft. 2,614 sq. ft. $57
2016-10-12 Single Family Colonial 82 Sassafras St Providence, RI 02907 $164,000 1,454 sq. ft. 2,614 sq. ft. $113
2016-10-11 Single Family Victorian 54 Puritan St Providence, RI 02907 $109,900 1,432 sq. ft. 3,049 sq. ft. $77
2016-10-09 Single Family Colonial 56 Stadden St Providence, RI 02907 $37,500 1,164 sq. ft. 3,485 sq. ft. $32
2016-09-20 Single Family Cape Cod 51 Aurora St Providence, RI 02908 $109,900 957 sq. ft. 8,712 sq. ft. $115
2016-09-20 Single Family Colonial 23 Stone St Providence, RI 02904 $168,000 1,610 sq. ft. 3,049 sq. ft. $104
2016-08-30 Single Family Raised Ranch 82 Hilarity St Providence, RI 02909 $156,000 828 sq. ft. 4,792 sq. ft. $188
2016-08-21 Single Family Victorian 23 Sussex St Providence, RI 02908 $189,000 1,699 sq. ft. 12,197 sq. ft. $111
2016-08-11 Single Family Cottage 215 Dora St Providence, RI 02909 $99,000 750 sq. ft. 3,920 sq. ft. $132
2016-08-08 Single Family Contemporary 114 Federal St Providence, RI 02903 $288,800 1,272 sq. ft. 4,356 sq. ft. $227
2016-08-03 Single Family Ranch 161 Nelson St Providence, RI 02908 $199,000 1,056 sq. ft. 3,920 sq. ft. $188
2016-07-23 Single Family Ranch 103 Opper St Providence, RI 02904 $154,000 1,008 sq. ft. 3,049 sq. ft. $153
2016-07-16 Single Family 38 Glenham St Providence, RI 02907 $50,000 1,505 sq. ft. 2,614 sq. ft. $33
2016-07-15 Single Family Colonial 16 Babcock St Providence, RI 02905 $129,900 1,430 sq. ft. 3,049 sq. ft. $91
2016-06-02 Single Family Bungalow 37 Gladstone St Providence, RI 02907 $159,000 1,434 sq. ft. 4,356 sq. ft. $111
2016-05-19 Single Family Colonial 59 Marion Av Providence, RI 02905 $109,900 1,280 sq. ft. 3,049 sq. ft. $86